Time;durP1;ratioP1;P1;durP2;ratioP2;P2;SDS_P1;SDS_P2;PMS_P1;PMS_P2;Temp;Humidity;BMP_temperature;BMP_pressure;BME280_temperature;BME280_humidity;BME280_pressure;Samples;Min_cycle;Max_cycle;Signal;HPM_P1;HPM_P2
2022/10/13 00:02:31;;;;;;;0.47;0.47;;;13.60;96.00;;;;;;5019956;28;20021;-81
2022/10/13 00:08:20;;;;;;;0.13;0.10;;;13.70;95.50;;;;;;5037966;28;20063;-79
2022/10/13 00:11:55;;;;;;;0.57;0.55;;;13.80;95.50;;;;;;5019426;28;20076;-79
2022/10/13 00:18:55;;;;;;;0.50;0.50;;;13.70;96.20;;;;;;5037590;28;20036;-79
2022/10/13 00:22:21;;;;;;;0.52;0.30;;;13.70;97.00;;;;;;5036054;28;20083;-79
2022/10/13 00:28:22;;;;;;;0.28;0.28;;;13.60;97.20;;;;;;5037529;28;20087;-79
2022/10/13 00:30:57;;;;;;;0.43;0.43;;;13.50;97.20;;;;;;5052474;28;20030;-79
2022/10/13 00:33:31;;;;;;;0.57;0.45;;;13.50;96.70;;;;;;5037006;28;20028;-79
2022/10/13 00:39:19;;;;;;;0.90;0.65;;;13.50;96.90;;;;;;5037678;28;20059;-81
2022/10/13 00:42:05;;;;;;;0.85;0.68;;;13.50;97.10;;;;;;5052467;28;20108;-79
2022/10/13 00:48:05;;;;;;;0.68;0.47;;;13.40;96.80;;;;;;5037176;28;20025;-81
2022/10/13 00:50:43;;;;;;;3.20;0.77;;;13.40;96.90;;;;;;5036824;28;20104;-78
2022/10/13 00:53:22;;;;;;;1.65;1.27;;;13.50;96.50;;;;;;5035692;28;20357;-82
2022/10/13 00:59:21;;;;;;;0.52;0.52;;;13.50;95.50;;;;;;5037148;28;20048;-81
2022/10/13 01:01:58;;;;;;;0.63;0.45;;;13.30;95.60;;;;;;5036620;28;20014;-81
2022/10/13 01:08:05;;;;;;;1.13;1.00;;;13.20;95.50;;;;;;5037150;28;20029;-81
2022/10/13 01:11:34;;;;;;;1.85;1.25;;;13.10;96.20;;;;;;5018548;28;20131;-79
2022/10/13 01:17:36;;;;;;;1.25;1.15;;;13.00;97.00;;;;;;5015414;28;20115;-81
2022/10/13 01:20:51;;;;;;;0.70;0.68;;;13.00;97.10;;;;;;5015015;28;20034;-81
2022/10/13 01:24:03;;;;;;;0.73;0.60;;;13.10;97.40;;;;;;4998248;28;20033;-81
2022/10/13 01:30:24;;;;;;;0.30;0.30;;;13.10;96.20;;;;;;5015114;28;20056;-81
2022/10/13 01:33:07;;;;;;;0.70;0.70;;;13.10;95.80;;;;;;4998338;28;20014;-81
2022/10/13 01:39:08;;;;;;;1.13;0.90;;;13.00;96.40;;;;;;5015094;28;20033;-81
2022/10/13 01:41:56;;;;;;;0.80;0.65;;;13.00;96.30;;;;;;4998140;28;20037;-81
2022/10/13 01:48:02;;;;;;;0.65;0.65;;;13.10;96.10;;;;;;5024512;28;20329;-82
2022/10/13 01:50:38;;;;;;;0.20;0.20;;;13.10;96.20;;;;;;5036080;28;20018;-81
2022/10/13 01:53:14;;;;;;;0.80;0.80;;;13.10;96.60;;;;;;5018510;28;20037;-81
2022/10/13 01:58:43;;;;;;;0.45;0.40;;;13.00;96.70;;;;;;5040009;28;19967;-81
2022/10/13 02:01:56;;;;;;;0.20;0.20;;;13.00;96.90;;;;;;5039801;28;20021;-82
2022/10/13 02:08:01;;;;;;;0.90;0.90;;;12.90;97.50;;;;;;5040166;28;20032;-81
2022/10/13 02:14:27;;;;;;;0.55;0.55;;;12.90;98.00;;;;;;4998580;28;20040;-81
2022/10/13 02:16:56;;;;;;;0.47;0.47;;;12.90;97.90;;;;;;4965840;28;20137;-81
2022/10/13 02:19:35;;;;;;;0.65;0.60;;;12.90;97.70;;;;;;4981676;28;20018;-81
2022/10/13 02:22:13;;;;;;;1.52;1.35;;;12.90;98.00;;;;;;4998263;28;20029;-81
2022/10/13 02:28:01;;;;;;;0.43;0.43;;;13.00;98.00;;;;;;4998355;28;20330;-81
2022/10/13 02:30:38;;;;;;;0.65;0.65;;;13.00;98.00;;;;;;4965440;28;20031;-81
2022/10/13 02:33:15;;;;;;;0.70;0.57;;;13.10;98.00;;;;;;4998246;28;20034;-81
2022/10/13 02:39:17;;;;;;;0.68;0.45;;;13.00;98.00;;;;;;4998389;28;20033;-81
2022/10/13 02:41:49;;;;;;;0.70;0.70;;;12.80;98.00;;;;;;4981459;28;20022;-82
2022/10/13 02:47:36;;;;;;;1.65;1.25;;;12.80;98.00;;;;;;4998435;28;20072;-81
2022/10/13 02:50:12;;;;;;;0.85;0.60;;;12.80;98.00;;;;;;4997555;28;20038;-81
2022/10/13 02:52:47;;;;;;;0.50;0.40;;;12.70;98.00;;;;;;5018918;28;20040;-81
2022/10/13 02:55:21;;;;;;;0.28;0.28;;;12.60;98.00;;;;;;5018159;28;20041;-81
2022/10/13 02:57:47;;;;;;;3.45;2.13;;;12.60;98.00;;;;;;5018201;28;20030;-81
2022/10/13 03:00:22;;;;;;;0.15;0.15;;;12.50;98.00;;;;;;5001701;28;20026;-81
2022/10/13 03:02:57;;;;;;;1.27;1.17;;;12.40;98.00;;;;;;5018085;28;20026;-81
2022/10/13 03:09:01;;;;;;;0.65;0.50;;;12.40;98.00;;;;;;5018997;28;20244;-81
2022/10/13 03:12:27;;;;;;;0.28;0.20;;;12.40;98.00;;;;;;5019993;28;20042;-81
2022/10/13 03:15:53;;;;;;;0.65;0.65;;;12.40;98.00;;;;;;5017597;28;20040;-81
2022/10/13 03:18:19;;;;;;;0.75;0.75;;;12.40;98.00;;;;;;5017663;28;20038;-81
2022/10/13 03:20:59;;;;;;;0.90;0.30;;;12.40;98.00;;;;;;5017662;28;20113;-81
2022/10/13 03:23:34;;;;;;;1.35;0.60;;;12.50;98.00;;;;;;5001102;28;20025;-81
2022/10/13 03:26:09;;;;;;;1.17;0.77;;;12.50;98.00;;;;;;5000917;28;20026;-81
2022/10/13 03:28:50;;;;;;;0.63;0.57;;;12.50;98.00;;;;;;5001105;28;20022;-81
2022/10/13 03:31:25;;;;;;;0.45;0.45;;;12.40;98.00;;;;;;5001102;28;20041;-82
2022/10/13 03:34:00;;;;;;;0.45;0.45;;;12.40;98.00;;;;;;5033811;28;20025;-81
2022/10/13 03:36:26;;;;;;;1.00;0.90;;;12.40;98.00;;;;;;5018261;28;20081;-81
2022/10/13 03:39:05;;;;;;;0.57;0.43;;;12.50;98.00;;;;;;5017252;28;20116;-81
2022/10/13 03:41:40;;;;;;;0.50;0.47;;;12.50;98.00;;;;;;5033806;28;20026;-81
2022/10/13 03:44:15;;;;;;;0.13;0.10;;;12.60;98.00;;;;;;5000859;28;20026;-81
2022/10/13 03:46:41;;;;;;;2.27;2.07;;;12.50;98.00;;;;;;5033785;28;20167;-82
2022/10/13 03:49:47;;;;;;;0.60;0.60;;;12.50;98.00;;;;;;5000794;28;20060;-81
2022/10/13 03:52:23;;;;;;;0.47;0.47;;;12.50;98.00;;;;;;5016804;28;20026;-81
2022/10/13 03:54:58;;;;;;;0.55;0.55;;;12.50;98.00;;;;;;5017026;28;20060;-81
2022/10/13 03:57:24;;;;;;;0.83;0.77;;;12.50;98.00;;;;;;5016944;28;20036;-81
2022/10/13 04:00:09;;;;;;;1.02;0.98;;;12.40;98.00;;;;;;5016598;28;20602;-80
2022/10/13 04:02:44;;;;;;;1.48;0.68;;;12.40;98.00;;;;;;5017917;28;20049;-81
2022/10/13 04:05:19;;;;;;;0.32;0.32;;;12.40;98.00;;;;;;5016771;28;20080;-81
2022/10/13 04:07:45;;;;;;;0.77;0.73;;;12.40;98.00;;;;;;5017739;28;20119;-80
2022/10/13 04:10:10;;;;;;;0.68;0.25;;;12.40;98.00;;;;;;5018344;28;20440;-81
2022/10/13 04:12:48;;;;;;;0.90;0.80;;;12.40;98.00;;;;;;5016624;28;20026;-80
2022/10/13 04:18:49;;;;;;;0.50;0.47;;;12.40;98.00;;;;;;5009188;28;20033;-81
2022/10/13 04:21:25;;;;;;;0.70;0.55;;;12.40;98.00;;;;;;5017716;28;20018;-81
2022/10/13 04:24:01;;;;;;;0.43;0.43;;;12.40;98.00;;;;;;5000021;28;20414;-82
2022/10/13 04:26:28;;;;;;;;;;;12.40;98.00;;;;;;5000261;28;20022;-81
2022/10/13 04:29:05;;;;;;;0.00;0.00;;;12.40;98.00;;;;;;5017350;28;19996;-81
2022/10/13 04:31:42;;;;;;;10.13;3.40;;;12.50;98.00;;;;;;5000040;28;20048;-81
2022/10/13 04:34:17;;;;;;;1.20;1.02;;;12.60;98.00;;;;;;5000019;28;20410;-81
2022/10/13 04:36:43;;;;;;;0.53;0.53;;;12.60;98.00;;;;;;5016385;28;20056;-81
2022/10/13 04:39:18;;;;;;;0.43;0.43;;;12.70;98.00;;;;;;5017286;28;20292;-82
2022/10/13 04:41:53;;;;;;;5.50;0.60;;;12.80;98.00;;;;;;5032666;28;20038;-81
2022/10/13 04:44:28;;;;;;;0.80;0.57;;;12.90;98.00;;;;;;5016099;28;20314;-81
2022/10/13 04:46:54;;;;;;;0.47;0.40;;;12.90;98.00;;;;;;5017117;28;20358;-81
2022/10/13 04:50:29;;;;;;;0.38;0.38;;;12.80;98.00;;;;;;5016063;28;20022;-81
2022/10/13 04:53:55;;;;;;;0.20;0.20;;;12.90;98.00;;;;;;5015892;28;20030;-81
2022/10/13 05:00:50;;;;;;;0.10;0.10;;;12.90;98.00;;;;;;5017363;28;20032;-80
2022/10/13 05:06:50;;;;;;;1.77;1.58;;;12.90;98.00;;;;;;5017201;28;20041;-79
2022/10/13 05:09:28;;;;;;;0.35;0.35;;;12.80;98.00;;;;;;5015722;28;20026;-80
2022/10/13 05:12:03;;;;;;;1.98;1.70;;;12.80;98.00;;;;;;5030380;28;20049;-80
2022/10/13 05:14:38;;;;;;;0.30;0.30;;;12.70;98.00;;;;;;5036453;28;20478;-79
2022/10/13 05:17:04;;;;;;;0.35;0.35;;;12.60;98.00;;;;;;5036471;28;20101;-79
2022/10/13 05:20:12;;;;;;;1.77;1.67;;;12.60;98.00;;;;;;5035304;28;20753;-79
2022/10/13 05:26:12;;;;;;;0.30;0.30;;;12.30;98.00;;;;;;5036746;28;20028;-78
2022/10/13 05:28:50;;;;;;;1.13;1.02;;;12.20;98.00;;;;;;5033929;28;20029;-81
2022/10/13 05:31:27;;;;;;;0.63;0.60;;;12.20;98.00;;;;;;5020028;28;20084;-79
2022/10/13 05:34:01;;;;;;;1.70;0.80;;;12.20;98.00;;;;;;5023180;28;20035;-80
2022/10/13 05:36:31;;;;;;;0.88;0.85;;;12.20;98.00;;;;;;5055956;28;20029;-82
2022/10/13 05:39:09;;;;;;;0.28;0.28;;;12.10;98.00;;;;;;5040484;28;20029;-79
2022/10/13 05:41:44;;;;;;;0.43;0.43;;;12.20;98.00;;;;;;5022719;28;20033;-79
2022/10/13 05:47:32;;;;;;;1.60;1.38;;;12.20;98.00;;;;;;5040416;28;20093;-80
2022/10/13 05:50:07;;;;;;;0.85;0.55;;;12.20;98.00;;;;;;5040200;28;20022;-82
2022/10/13 05:52:42;;;;;;;0.43;0.43;;;12.30;98.00;;;;;;5022665;28;20409;-79
2022/10/13 05:55:18;;;;;;;0.20;0.17;;;12.40;98.00;;;;;;5039040;28;20025;-79
2022/10/13 05:57:48;;;;;;;;;;;12.50;98.00;;;;;;5055837;28;20022;-79
2022/10/13 06:00:23;;;;;;;0.80;0.45;;;12.60;98.00;;;;;;5022335;28;20297;-79
2022/10/13 06:03:18;;;;;;;0.30;0.30;;;12.70;98.00;;;;;;5040020;28;20025;-79
2022/10/13 06:05:52;;;;;;;0.40;0.32;;;12.90;98.00;;;;;;5039842;28;20028;-79
2022/10/13 06:08:18;;;;;;;0.55;0.55;;;13.00;98.00;;;;;;5022177;28;20021;-81
2022/10/13 06:10:45;;;;;;;1.00;0.65;;;13.20;98.00;;;;;;5054891;28;20047;-79
2022/10/13 06:13:19;;;;;;;3.95;2.05;;;13.30;98.00;;;;;;5022017;28;20362;-79
2022/10/13 06:15:54;;;;;;;0.35;0.35;;;13.50;98.00;;;;;;5038721;28;20100;-79
2022/10/13 06:18:20;;;;;;;0.65;0.50;;;13.70;98.00;;;;;;5038475;28;20017;-79
2022/10/13 06:20:55;;;;;;;0.30;0.30;;;13.80;98.00;;;;;;5039566;28;20040;-80
2022/10/13 06:23:29;;;;;;;0.85;0.77;;;14.00;98.00;;;;;;5039565;28;20021;-79
2022/10/13 06:29:17;;;;;;;0.50;0.50;;;14.30;96.30;;;;;;5039735;28;20040;-79
2022/10/13 06:31:52;;;;;;;1.08;0.98;;;14.40;95.80;;;;;;5038253;28;20405;-79
2022/10/13 06:34:27;;;;;;;0.47;0.38;;;14.50;95.30;;;;;;5039354;28;20118;-79
2022/10/13 06:36:52;;;;;;;1.30;0.75;;;14.60;94.40;;;;;;5039394;28;20469;-79
2022/10/13 06:39:28;;;;;;;0.28;0.28;;;14.70;93.60;;;;;;5021626;28;20124;-79
2022/10/13 06:42:03;;;;;;;;;;;14.80;92.90;;;;;;5021391;28;20055;-79
2022/10/13 06:44:38;;;;;;;1.38;1.17;;;14.80;93.20;;;;;;5021525;28;19909;-79
2022/10/13 06:47:04;;;;;;;0.90;0.90;;;14.90;92.20;;;;;;5021676;28;20021;-79
2022/10/13 06:49:45;;;;;;;1.17;1.08;;;15.00;92.60;;;;;;5038262;28;20030;-79
2022/10/13 06:52:20;;;;;;;1.15;1.08;;;15.00;92.90;;;;;;5037896;28;20021;-81
2022/10/13 06:54:55;;;;;;;0.33;0.27;;;15.10;92.10;;;;;;5054738;28;20320;-81
2022/10/13 06:57:21;;;;;;;1.40;0.80;;;15.10;92.60;;;;;;5037742;28;20268;-79
2022/10/13 07:00:06;;;;;;;0.47;0.40;;;15.20;91.80;;;;;;5037886;28;20036;-81
2022/10/13 07:02:41;;;;;;;0.40;0.40;;;15.20;92.60;;;;;;5038743;28;20021;-79
2022/10/13 07:08:28;;;;;;;0.60;0.50;;;15.40;93.40;;;;;;5039062;28;20032;-81
2022/10/13 07:11:29;;;;;;;0.45;0.43;;;15.50;94.10;;;;;;5020465;28;20045;-81
2022/10/13 07:14:04;;;;;;;1.75;0.93;;;15.50;92.50;;;;;;5018818;28;20030;-79
2022/10/13 07:16:30;;;;;;;0.35;0.25;;;15.60;91.10;;;;;;5001348;28;20433;-81
2022/10/13 07:19:05;;;;;;;0.60;0.52;;;15.60;91.10;;;;;;5001510;28;20022;-78
2022/10/13 07:21:40;;;;;;;1.00;0.80;;;15.70;92.70;;;;;;5001425;28;20045;-81
2022/10/13 07:24:15;;;;;;;0.63;0.47;;;15.80;90.60;;;;;;5017526;28;20277;-81
2022/10/13 07:26:41;;;;;;;0.70;0.63;;;15.90;90.40;;;;;;5001232;28;20032;-78
2022/10/13 07:32:29;;;;;;;0.93;0.82;;;16.00;89.70;;;;;;5018630;28;20033;-81
2022/10/13 07:35:05;;;;;;;0.95;0.95;;;16.00;90.60;;;;;;5001192;28;20049;-79
2022/10/13 07:37:30;;;;;;;0.85;0.80;;;16.10;91.60;;;;;;5018400;28;20049;-81
2022/10/13 07:40:06;;;;;;;0.38;0.38;;;16.10;90.10;;;;;;4984756;28;20061;-79
2022/10/13 07:42:41;;;;;;;;;;;16.10;90.90;;;;;;5018746;28;20032;-79
2022/10/13 07:48:43;;;;;;;0.47;0.40;;;16.20;90.30;;;;;;5018209;28;20064;-80
2022/10/13 07:51:20;;;;;;;0.47;0.40;;;16.20;90.40;;;;;;5001097;28;20028;-81
2022/10/13 07:53:55;;;;;;;0.45;0.40;;;16.30;90.10;;;;;;5017215;28;20033;-81
2022/10/13 07:56:20;;;;;;;0.50;0.50;;;16.30;89.70;;;;;;5017976;28;20076;-79
2022/10/13 07:59:04;;;;;;;0.52;0.40;;;16.30;89.10;;;;;;5000530;28;20041;-82
2022/10/13 08:01:39;;;;;;;0.55;0.38;;;16.40;89.60;;;;;;5033290;28;20502;-79
2022/10/13 08:04:15;;;;;;;1.35;1.02;;;16.60;90.20;;;;;;5033241;28;20030;-79
2022/10/13 08:06:41;;;;;;;0.35;0.30;;;16.70;88.10;;;;;;5017967;28;20022;-81
2022/10/13 08:09:23;;;;;;;1.02;0.93;;;16.80;87.60;;;;;;5000367;28;20307;-79
2022/10/13 08:12:48;;;;;;;0.68;0.52;;;16.90;87.50;;;;;;5002770;28;20046;-81
2022/10/13 08:16:04;;;;;;;1.63;0.95;;;17.40;88.20;;;;;;5037433;28;20029;-79
2022/10/13 08:19:30;;;;;;;1.98;0.95;;;17.80;86.60;;;;;;5037416;28;20030;-80
2022/10/13 08:22:56;;;;;;;1.58;0.77;;;18.20;84.60;;;;;;5036036;28;20112;-80
2022/10/13 08:26:21;;;;;;;0.25;0.17;;;18.40;82.80;;;;;;5037190;28;20052;-78
2022/10/13 08:29:47;;;;;;;0.43;0.30;;;18.50;83.00;;;;;;5036196;28;20481;-79
2022/10/13 08:33:13;;;;;;;0.30;0.30;;;18.90;84.70;;;;;;5035962;28;20108;-79
2022/10/13 08:39:14;;;;;;;3.58;0.90;;;20.00;81.40;;;;;;5037273;28;20036;-79
2022/10/13 08:41:50;;;;;;;0.50;0.45;;;21.00;78.10;;;;;;5035884;28;20405;-79
2022/10/13 08:44:41;;;;;;;0.52;0.52;;;21.70;75.60;;;;;;5019274;28;20025;-79
2022/10/13 08:47:42;;;;;;;1.35;1.20;;;22.50;75.70;;;;;;5035877;28;20028;-81
2022/10/13 08:50:24;;;;;;;0.77;0.50;;;23.10;75.80;;;;;;5036838;28;20025;-80
2022/10/13 08:53:01;;;;;;;0.63;0.43;;;23.30;71.80;;;;;;5036728;28;20028;-81
2022/10/13 08:55:39;;;;;;;1.08;0.70;;;23.10;71.90;;;;;;5036842;28;20017;-80
2022/10/13 08:58:28;;;;;;;0.82;0.30;;;23.10;71.50;;;;;;5036651;28;20075;-81
2022/10/13 09:01:12;;;;;;;2.22;0.80;;;23.20;72.50;;;;;;5036731;28;20017;-81
2022/10/13 09:03:49;;;;;;;1.90;0.85;;;22.90;70.20;;;;;;5051962;28;20026;-81
2022/10/13 09:06:37;;;;;;;0.70;0.50;;;23.10;72.00;;;;;;5035200;28;20375;-80
2022/10/13 09:09:16;;;;;;;1.02;0.60;;;23.40;72.10;;;;;;5036417;28;20025;-82
2022/10/13 09:11:49;;;;;;;0.60;0.40;;;23.80;69.90;;;;;;5018882;28;20025;-80
2022/10/13 09:17:49;;;;;;;0.90;0.57;;;24.00;69.40;;;;;;5016830;28;20089;-81
2022/10/13 09:20:26;;;;;;;1.60;0.90;;;24.40;68.80;;;;;;4999291;28;20083;-81
2022/10/13 09:23:26;;;;;;;2.72;1.08;;;24.50;68.60;;;;;;4999290;28;20044;-80
2022/10/13 09:26:08;;;;;;;0.77;0.60;;;24.50;67.40;;;;;;5016521;28;20030;-81
2022/10/13 09:28:43;;;;;;;1.58;0.77;;;24.40;68.30;;;;;;4999187;28;20026;-81
2022/10/13 09:31:36;;;;;;;1.15;0.73;;;24.50;67.10;;;;;;4999256;28;20357;-80
2022/10/13 09:34:20;;;;;;;0.88;0.80;;;24.60;67.10;;;;;;5016647;28;20430;-80
2022/10/13 09:36:57;;;;;;;1.63;1.00;;;24.70;65.60;;;;;;5015500;28;20037;-79
2022/10/13 09:39:32;;;;;;;0.52;0.43;;;24.90;66.60;;;;;;4999126;28;20014;-79
2022/10/13 09:42:27;;;;;;;0.82;0.60;;;24.90;68.50;;;;;;5016561;28;20057;-79
2022/10/13 09:45:34;;;;;;;1.10;0.82;;;25.20;67.70;;;;;;5031766;28;20355;-78
2022/10/13 09:48:26;;;;;;;1.00;0.70;;;25.30;66.20;;;;;;4956328;29;20140;-79
2022/10/13 09:51:01;;;;;;;1.15;0.70;;;25.40;66.00;;;;;;4956208;29;20379;-79
2022/10/13 09:53:40;;;;;;;3.10;0.43;;;25.50;65.50;;;;;;4956359;29;20361;-79
2022/10/13 09:59:44;;;;;;;0.63;0.50;;;25.60;66.30;;;;;;4956213;29;20026;-79
2022/10/13 10:03:00;;;;;;;0.68;0.65;;;25.70;66.50;;;;;;4956222;29;20368;-78
2022/10/13 10:06:06;;;;;;;0.50;0.35;;;25.60;66.00;;;;;;4945370;29;20054;-79
2022/10/13 10:09:31;;;;;;;2.22;0.85;;;25.30;65.10;;;;;;4956170;29;20055;-79
2022/10/13 10:27:16;;;;;;;0.57;0.40;;;25.60;65.60;;;;;;4906381;29;20050;-79
2022/10/13 10:29:58;;;;;;;1.13;0.85;;;25.50;66.20;;;;;;4902251;29;20488;-80
2022/10/13 10:33:14;;;;;;;1.00;0.60;;;25.50;66.40;;;;;;4902249;29;20032;-80
2022/10/13 10:39:36;;;;;;;9.45;1.33;;;25.80;66.00;;;;;;4921272;29;20046;-80
2022/10/13 10:42:23;;;;;;;0.47;0.38;;;25.60;66.90;;;;;;4904921;29;20032;-80
2022/10/13 10:48:43;;;;;;;1.17;0.60;;;25.40;67.80;;;;;;4921106;29;20416;-79
2022/10/13 10:51:18;;;;;;;0.30;0.20;;;25.50;66.00;;;;;;4920857;29;20123;-80
2022/10/13 10:54:19;;;;;;;0.80;0.50;;;25.10;68.70;;;;;;4920841;29;20036;-79
2022/10/13 10:57:02;;;;;;;1.17;0.80;;;25.10;66.40;;;;;;4920907;29;20028;-78
2022/10/13 11:00:22;;;;;;;3.67;1.25;;;25.10;66.70;;;;;;5016415;28;20062;-78
2022/10/13 11:03:48;;;;;;;0.77;0.55;;;24.90;66.30;;;;;;4939700;29;20414;-78
2022/10/13 11:06:16;;;;;;;1.30;1.00;;;24.80;68.10;;;;;;4864382;29;20155;-79
2022/10/13 11:08:54;;;;;;;1.10;0.43;;;24.60;67.60;;;;;;4864263;29;20525;-78
2022/10/13 11:11:31;;;;;;;0.55;0.32;;;24.70;68.30;;;;;;4864403;29;20029;-78
2022/10/13 11:14:55;;;;;;;4.53;0.98;;;24.90;68.20;;;;;;4878181;29;20127;-78
2022/10/13 11:17:28;;;;;;;0.90;0.60;;;25.00;67.50;;;;;;4939525;29;20162;-78
2022/10/13 11:20:34;;;;;;;1.02;0.77;;;25.00;66.70;;;;;;5001400;28;20034;-79
2022/10/13 11:23:12;;;;;;;0.88;0.63;;;24.90;67.50;;;;;;4999889;28;20099;-78
2022/10/13 11:29:00;;;;;;;0.77;0.55;;;24.10;67.90;;;;;;5018666;28;20080;-77
2022/10/13 11:31:53;;;;;;;1.60;1.17;;;23.70;70.20;;;;;;5001069;28;20018;-78
2022/10/13 11:34:31;;;;;;;3.22;1.27;;;23.50;70.40;;;;;;5000957;28;20376;-78
2022/10/13 11:37:00;;;;;;;1.25;0.90;;;23.10;72.50;;;;;;5017172;28;20115;-78
2022/10/13 11:39:59;;;;;;;1.60;1.33;;;22.70;70.30;;;;;;5017439;28;20038;-78
2022/10/13 11:43:22;;;;;;;1.77;1.23;;;22.60;73.90;;;;;;5000563;28;20030;-78
2022/10/13 11:46:24;;;;;;;0.77;0.43;;;23.00;74.80;;;;;;5018118;28;20097;-79
2022/10/13 11:49:56;;;;;;;1.88;1.08;;;23.50;75.20;;;;;;5018125;28;20022;-80
2022/10/13 11:53:01;;;;;;;1.50;0.73;;;23.60;71.50;;;;;;4938711;29;20089;-80
2022/10/13 11:55:56;;;;;;;1.95;1.38;;;23.50;70.10;;;;;;4938596;29;20078;-78
2022/10/13 11:58:49;;;;;;;1.35;0.90;;;23.20;69.10;;;;;;5017156;28;20061;-78
2022/10/13 12:04:39;;;;;;;1.05;0.70;;;23.10;72.10;;;;;;5017958;28;20110;-78
2022/10/13 12:07:07;;;;;;;1.45;1.08;;;23.10;70.80;;;;;;5000266;28;20021;-79
2022/10/13 12:10:32;;;;;;;1.23;1.13;;;23.10;72.70;;;;;;5000227;28;20026;-79
2022/10/13 12:13:27;;;;;;;1.30;1.08;;;22.80;70.00;;;;;;4991715;28;20041;-79
2022/10/13 12:16:06;;;;;;;0.95;0.85;;;22.50;69.20;;;;;;5019764;28;20029;-78
2022/10/13 12:18:44;;;;;;;1.70;1.20;;;22.10;71.50;;;;;;5019684;28;20064;-78
2022/10/13 12:21:22;;;;;;;0.40;0.40;;;22.00;71.30;;;;;;5036368;28;20029;-79
2022/10/13 12:24:15;;;;;;;6.78;1.00;;;21.90;70.70;;;;;;5052715;28;20030;-78
2022/10/13 12:26:41;;;;;;;0.73;0.70;;;21.70;70.30;;;;;;5036396;28;20052;-78
2022/10/13 12:29:28;;;;;;;0.93;0.70;;;21.60;74.00;;;;;;5036252;28;20329;-78
2022/10/13 12:32:27;;;;;;;1.17;0.98;;;21.60;76.10;;;;;;5052634;28;20024;-78
2022/10/13 12:38:18;;;;;;;1.50;1.15;;;21.40;74.40;;;;;;5037229;28;20452;-78
2022/10/13 12:40:59;;;;;;;4.90;1.85;;;21.50;77.30;;;;;;5036483;28;20025;-78
2022/10/13 12:43:34;;;;;;;1.67;1.02;;;21.60;75.10;;;;;;5052423;28;20104;-79
2022/10/13 12:46:09;;;;;;;0.82;0.68;;;21.60;74.20;;;;;;5036796;28;20041;-79
2022/10/13 12:48:44;;;;;;;1.42;1.00;;;21.60;76.80;;;;;;5035774;28;20108;-79
2022/10/13 12:51:26;;;;;;;2.30;1.55;;;21.60;74.60;;;;;;5035849;28;20108;-78
2022/10/13 12:54:48;;;;;;;0.65;0.47;;;21.50;75.50;;;;;;5019289;28;20021;-79
2022/10/13 12:57:35;;;;;;;4.05;1.80;;;21.40;73.90;;;;;;5036847;28;20376;-78
2022/10/13 13:00:29;;;;;;;3.00;1.88;;;21.20;74.40;;;;;;5049418;28;20112;-78
2022/10/13 13:03:28;;;;;;;0.68;0.47;;;21.20;76.00;;;;;;5037053;28;20416;-78
2022/10/13 13:06:22;;;;;;;0.88;0.65;;;21.00;75.30;;;;;;5018856;28;20421;-78
2022/10/13 13:09:27;;;;;;;0.63;0.50;;;20.90;76.40;;;;;;5052173;28;20021;-78
2022/10/13 13:12:28;;;;;;;5.65;1.70;;;20.80;74.80;;;;;;4998371;28;20042;-80
2022/10/13 13:22:16;;;;;;;1.85;1.42;;;20.90;76.50;;;;;;5015059;28;20477;-78
2022/10/13 13:28:18;;;;;;;2.17;0.80;;;20.80;74.90;;;;;;5019163;28;20032;-78
2022/10/13 13:30:53;;;;;;;0.63;0.43;;;20.70;76.70;;;;;;5018851;28;20022;-78
2022/10/13 13:33:28;;;;;;;1.67;1.00;;;20.70;73.90;;;;;;5035465;28;20402;-79
2022/10/13 13:36:15;;;;;;;1.42;1.08;;;20.60;74.20;;;;;;5027059;28;20029;-78
2022/10/13 13:38:54;;;;;;;1.42;0.95;;;20.50;74.40;;;;;;5018837;28;20032;-78
2022/10/13 13:41:30;;;;;;;1.00;0.57;;;20.50;77.10;;;;;;5019039;28;20021;-78
2022/10/13 13:44:48;;;;;;;1.08;0.85;;;20.60;76.10;;;;;;5036335;28;20017;-79
2022/10/13 13:47:18;;;;;;;1.17;0.60;;;20.70;77.30;;;;;;5036270;28;20075;-78
2022/10/13 13:49:55;;;;;;;3.88;1.25;;;20.70;75.20;;;;;;5035110;28;20025;-79
2022/10/13 13:52:29;;;;;;;0.85;0.60;;;20.60;78.90;;;;;;5020057;28;20025;-78
2022/10/13 13:55:05;;;;;;;0.43;0.35;;;20.60;78.70;;;;;;5022381;28;20029;-79
2022/10/13 13:57:30;;;;;;;0.70;0.60;;;20.70;78.50;;;;;;5022475;28;20018;-79
2022/10/13 14:00:13;;;;;;;1.05;0.82;;;20.70;77.10;;;;;;5055362;28;20120;-78
2022/10/13 14:02:49;;;;;;;1.23;0.68;;;20.70;73.70;;;;;;5022363;28;20087;-79
2022/10/13 14:08:18;;;;;;;1.92;1.13;;;20.40;74.70;;;;;;5040021;28;19908;-78
2022/10/13 14:10:57;;;;;;;0.60;0.50;;;20.30;77.10;;;;;;5055537;28;20022;-78
2022/10/13 14:17:57;;;;;;;0.73;0.50;;;20.00;77.20;;;;;;5040227;28;20120;-78
2022/10/13 14:21:22;;;;;;;0.95;0.75;;;19.90;78.90;;;;;;5038579;28;20033;-78
2022/10/13 14:24:48;;;;;;;0.57;0.43;;;19.70;79.10;;;;;;5038442;28;20017;-79
2022/10/13 14:27:14;;;;;;;0.93;0.60;;;19.50;79.10;;;;;;5038557;28;20037;-80
2022/10/13 14:33:03;;;;;;;1.08;0.80;;;19.40;79.20;;;;;;5039672;28;20305;-78
2022/10/13 14:35:38;;;;;;;0.88;0.75;;;19.40;79.30;;;;;;5021708;28;20107;-78
2022/10/13 14:38:04;;;;;;;1.45;0.77;;;19.30;80.00;;;;;;5038538;28;20025;-80
2022/10/13 14:40:42;;;;;;;0.63;0.57;;;19.30;81.10;;;;;;5021710;28;20033;-79
2022/10/13 14:43:16;;;;;;;1.27;0.80;;;19.40;78.60;;;;;;5021639;28;20025;-78
2022/10/13 14:49:04;;;;;;;0.77;0.60;;;19.40;76.50;;;;;;5039493;28;20127;-80
2022/10/13 14:52:17;;;;;;;1.02;0.85;;;19.50;79.30;;;;;;5037933;28;20120;-80
2022/10/13 14:58:05;;;;;;;1.02;0.88;;;19.40;81.50;;;;;;5039318;28;20409;-80
2022/10/13 15:00:41;;;;;;;1.10;0.73;;;19.30;80.80;;;;;;5039092;28;20029;-80
2022/10/13 15:03:16;;;;;;;1.55;1.45;;;19.10;80.80;;;;;;5038525;28;20026;-80
2022/10/13 15:05:51;;;;;;;1.33;0.53;;;19.00;81.60;;;;;;5021064;28;20337;-80
2022/10/13 15:08:17;;;;;;;0.35;0.25;;;18.90;81.00;;;;;;5038799;28;20021;-80
2022/10/13 15:11:21;;;;;;;1.13;0.75;;;18.90;81.30;;;;;;5038744;28;20024;-80
2022/10/13 15:13:55;;;;;;;1.58;0.88;;;18.80;84.30;;;;;;5034497;28;20041;-80
2022/10/13 15:16:25;;;;;;;3.07;1.93;;;18.70;87.30;;;;;;5054115;28;20029;-80
2022/10/13 15:19:01;;;;;;;1.15;0.85;;;18.60;87.50;;;;;;5020669;28;20302;-80
2022/10/13 15:21:36;;;;;;;1.33;1.23;;;18.50;86.70;;;;;;5038495;28;20028;-81
2022/10/13 15:24:12;;;;;;;1.00;0.83;;;18.40;87.10;;;;;;5038428;28;20032;-80
2022/10/13 15:26:37;;;;;;;0.90;0.73;;;18.30;89.10;;;;;;5021008;28;20310;-80
2022/10/13 15:29:18;;;;;;;2.13;1.08;;;18.20;89.20;;;;;;5038205;28;20032;-81
2022/10/13 15:32:44;;;;;;;2.10;1.30;;;18.10;89.30;;;;;;5037394;28;20032;-80
2022/10/13 15:38:45;;;;;;;0.85;0.47;;;17.80;89.60;;;;;;5038443;28;20048;-81
2022/10/13 15:41:22;;;;;;;0.65;0.63;;;17.60;89.50;;;;;;5037020;28;20417;-80
2022/10/13 15:43:57;;;;;;;0.85;0.80;;;17.50;89.10;;;;;;5037961;28;20425;-81
2022/10/13 15:49:57;;;;;;;0.88;0.68;;;17.30;89.90;;;;;;5038202;28;20113;-81
2022/10/13 15:52:37;;;;;;;0.47;0.45;;;17.20;89.90;;;;;;5036941;28;20032;-80
2022/10/13 15:55:12;;;;;;;0.80;0.65;;;17.10;90.10;;;;;;5020127;28;20022;-80
2022/10/13 15:57:38;;;;;;;0.90;0.77;;;16.90;90.40;;;;;;5036959;28;20313;-80
2022/10/13 16:00:16;;;;;;;1.48;1.30;;;16.80;90.60;;;;;;5053209;28;20025;-81
2022/10/13 16:02:51;;;;;;;0.98;0.70;;;16.70;90.20;;;;;;5037727;28;20156;-81
2022/10/13 16:05:26;;;;;;;1.50;0.88;;;16.50;90.30;;;;;;5036595;28;20029;-80
2022/10/13 16:07:52;;;;;;;1.00;0.80;;;16.40;90.90;;;;;;5036604;28;20022;-80
2022/10/13 16:10:40;;;;;;;0.52;0.52;;;16.30;91.70;;;;;;5036536;28;20052;-81
2022/10/13 16:13:15;;;;;;;1.45;0.80;;;16.20;92.00;;;;;;5019962;28;20026;-81
2022/10/13 16:16:21;;;;;;;1.23;1.13;;;16.10;91.90;;;;;;5036379;28;20087;-80
2022/10/13 16:18:56;;;;;;;1.30;0.93;;;16.00;91.50;;;;;;5016522;28;20036;-80
2022/10/13 16:21:31;;;;;;;0.98;0.73;;;16.00;91.60;;;;;;5036596;28;20080;-81
2022/10/13 16:24:06;;;;;;;2.70;1.80;;;16.00;91.50;;;;;;5019830;28;20120;-81
2022/10/13 16:30:04;;;;;;;1.73;0.90;;;15.90;92.10;;;;;;5037438;28;20040;-80
2022/10/13 16:32:39;;;;;;;1.90;0.93;;;15.80;91.80;;;;;;5037141;28;20053;-81
2022/10/13 16:35:14;;;;;;;1.02;0.50;;;15.70;91.50;;;;;;5037084;28;20136;-81
2022/10/13 16:37:39;;;;;;;1.33;1.00;;;15.70;91.80;;;;;;5035965;28;20093;-81
2022/10/13 16:40:21;;;;;;;2.05;1.42;;;15.60;91.80;;;;;;5035918;28;20056;-80
2022/10/13 16:42:56;;;;;;;0.90;0.57;;;15.70;91.60;;;;;;5019517;28;20128;-81
2022/10/13 16:48:44;;;;;;;0.77;0.77;;;15.50;91.60;;;;;;5037095;28;20094;-80
2022/10/13 16:52:06;;;;;;;1.65;1.55;;;15.40;91.70;;;;;;5052490;28;20108;-80
2022/10/13 16:54:41;;;;;;;0.63;0.30;;;15.40;92.10;;;;;;5035705;28;20025;-79
2022/10/13 16:57:07;;;;;;;2.40;0.93;;;15.40;92.50;;;;;;5036738;28;20033;-81
2022/10/13 16:59:41;;;;;;;0.73;0.73;;;15.30;92.60;;;;;;5019115;28;20116;-81
2022/10/13 17:02:16;;;;;;;1.45;1.35;;;15.30;92.60;;;;;;5035702;28;20026;-81
2022/10/13 17:08:04;;;;;;;0.80;0.70;;;15.20;92.30;;;;;;5036832;28;20039;-80